Time;durP1;ratioP1;P1;durP2;ratioP2;P2;SDS_P1;SDS_P2;PMS_P1;PMS_P2;Temp;Humidity;BMP_temperature;BMP_pressure;BME280_temperature;BME280_humidity;BME280_pressure;Samples;Min_cycle;Max_cycle;Signal;HPM_P1;HPM_P2
2022/07/05 00:01:27;;;;;;;3.33;3.03;;;;;;;23.87;49.35;99570.09;5070479;28;20578;-58
2022/07/05 00:03:53;;;;;;;4.23;3.10;;;;;;;23.79;49.75;99571.31;5070521;28;20203;-57
2022/07/05 00:06:20;;;;;;;11.10;3.70;;;;;;;23.81;49.57;99566.88;5070495;28;20199;-58
2022/07/05 00:08:47;;;;;;;14.23;4.43;;;;;;;23.84;49.65;99564.97;5070794;28;20215;-58
2022/07/05 00:11:14;;;;;;;12.05;5.50;;;;;;;23.82;49.75;99571.19;5070013;28;20438;-57
2022/07/05 00:13:41;;;;;;;13.10;5.10;;;;;;;23.82;49.86;99563.31;5070228;28;20514;-57
2022/07/05 00:16:09;;;;;;;9.50;3.63;;;;;;;23.80;49.84;99563.38;5070412;28;20199;-58
2022/07/05 00:18:36;;;;;;;7.60;3.70;;;;;;;23.79;49.88;99574.78;5068387;28;20184;-57
2022/07/05 00:21:03;;;;;;;4.33;3.10;;;;;;;23.78;49.90;99577.47;5070326;28;20195;-57
2022/07/05 00:23:30;;;;;;;7.70;5.20;;;;;;;23.75;50.08;99569.72;5070051;28;20610;-57
2022/07/05 00:25:57;;;;;;;7.07;3.80;;;;;;;23.69;50.28;99565.53;5069999;28;20199;-57
2022/07/05 00:28:23;;;;;;;5.43;3.57;;;;;;;23.65;50.26;99558.69;5070177;28;20227;-57
2022/07/05 00:30:50;;;;;;;5.20;3.20;;;;;;;23.67;50.44;99556.00;5070488;28;20196;-57
2022/07/05 00:33:18;;;;;;;4.50;3.30;;;;;;;23.67;50.49;99559.50;5070456;28;20206;-57
2022/07/05 00:35:45;;;;;;;4.40;3.80;;;;;;;23.60;51.04;99558.00;5070690;28;20290;-57
2022/07/05 00:38:12;;;;;;;5.57;3.63;;;;;;;23.59;50.85;99553.69;5070444;28;20191;-57
2022/07/05 00:40:39;;;;;;;4.33;3.70;;;;;;;23.54;51.21;99542.47;5070309;28;20192;-57
2022/07/05 00:43:06;;;;;;;4.70;3.80;;;;;;;23.54;51.62;99539.00;5070398;28;20206;-56
2022/07/05 00:45:33;;;;;;;6.60;4.27;;;;;;;23.55;51.33;99535.44;5070399;28;20195;-57
2022/07/05 00:48:00;;;;;;;6.63;4.35;;;;;;;23.49;51.52;99533.91;5069136;28;20813;-56
2022/07/05 00:50:28;;;;;;;6.17;4.40;;;;;;;23.49;51.77;99534.75;5068448;28;20202;-57
2022/07/05 00:52:57;;;;;;;5.30;4.80;;;;;;;23.55;51.84;99532.84;5070181;28;20204;-57
2022/07/05 00:55:24;;;;;;;5.07;4.50;;;;;;;23.42;51.97;99511.44;5069648;28;20198;-56
2022/07/05 00:57:51;;;;;;;9.00;4.77;;;;;;;23.51;51.69;99526.88;5069739;28;20191;-57
2022/07/05 01:00:18;;;;;;;7.67;4.70;;;;;;;23.48;51.71;99522.59;5069889;28;20195;-57
2022/07/05 01:02:45;;;;;;;7.90;4.87;;;;;;;23.51;52.01;99524.25;5069565;28;20258;-57
2022/07/05 01:05:12;;;;;;;5.23;4.43;;;;;;;23.43;52.22;99528.91;5069886;28;20195;-57
2022/07/05 01:07:41;;;;;;;6.97;4.17;;;;;;;23.40;52.42;99523.75;5069547;28;20219;-57
2022/07/05 01:10:08;;;;;;;6.00;4.00;;;;;;;23.36;52.50;99527.34;5069831;28;20629;-57
2022/07/05 01:12:35;;;;;;;8.53;4.20;;;;;;;23.36;52.70;99519.50;5069867;28;20195;-57
2022/07/05 01:15:03;;;;;;;6.73;4.53;;;;;;;23.40;52.80;99513.28;5069240;28;20195;-57
2022/07/05 01:17:30;;;;;;;10.40;3.73;;;;;;;23.34;53.22;99521.31;5069813;28;20196;-57
2022/07/05 01:19:57;;;;;;;5.40;3.57;;;;;;;23.32;53.21;99520.53;5069760;28;20690;-57
2022/07/05 01:22:27;;;;;;;4.20;3.80;;;;;;;23.35;53.16;99512.50;5068920;28;20966;-57
2022/07/05 01:24:56;;;;;;;4.87;3.87;;;;;;;23.37;52.92;99514.25;5071501;28;20217;-57
2022/07/05 01:27:23;;;;;;;7.10;3.47;;;;;;;23.43;53.04;99507.91;5073714;28;20567;-57
2022/07/05 01:29:50;;;;;;;6.43;4.27;;;;;;;23.45;53.00;99511.34;5073391;28;20206;-57
2022/07/05 01:32:17;;;;;;;7.17;3.90;;;;;;;23.37;53.36;99508.09;5073503;28;20223;-57
2022/07/05 01:34:44;;;;;;;5.77;3.80;;;;;;;23.38;52.96;99505.44;5073406;28;20703;-57
2022/07/05 01:37:11;;;;;;;4.63;3.40;;;;;;;23.35;53.36;99502.03;5073368;28;20199;-57
2022/07/05 01:39:38;;;;;;;3.93;3.50;;;;;;;23.41;53.01;99501.84;5070948;28;20658;-57
2022/07/05 01:42:07;;;;;;;5.63;3.53;;;;;;;23.40;53.07;99510.66;5072759;28;20452;-57
2022/07/05 01:44:34;;;;;;;5.40;3.43;;;;;;;23.39;52.99;99503.69;5073377;28;20559;-57
2022/07/05 01:47:06;;;;;;;5.47;3.80;;;;;;;23.38;52.54;99501.94;5063837;28;20709;-56
2022/07/05 01:49:37;;;;;;;4.70;3.40;;;;;;;23.29;52.70;99497.84;5069403;28;20215;-57
2022/07/05 01:52:10;;;;;;;6.93;3.70;;;;;;;23.21;53.33;99506.94;5072966;28;21046;-57
2022/07/05 01:54:37;;;;;;;4.73;3.60;;;;;;;23.26;53.09;99510.25;5072191;28;20281;-57
2022/07/05 01:57:05;;;;;;;4.20;3.67;;;;;;;23.29;53.05;99515.38;5073235;28;20694;-56
2022/07/05 01:59:34;;;;;;;6.90;3.83;;;;;;;23.27;53.26;99520.66;5065065;28;20188;-57
2022/07/05 02:02:01;;;;;;;4.43;3.47;;;;;;;23.20;53.40;99511.31;5052971;28;20200;-57
2022/07/05 02:04:29;;;;;;;11.80;4.67;;;;;;;23.03;54.22;99518.03;5056285;28;20204;-57
2022/07/05 02:06:56;;;;;;;6.13;3.70;;;;;;;23.09;54.41;99515.19;5058998;28;20202;-57
2022/07/05 02:09:23;;;;;;;4.77;3.80;;;;;;;23.17;54.02;99503.53;5058677;28;20212;-57
2022/07/05 02:11:50;;;;;;;6.33;3.53;;;;;;;23.21;54.09;99520.03;5072668;28;20624;-57
2022/07/05 02:14:17;;;;;;;7.57;3.67;;;;;;;23.18;53.68;99521.00;5072538;28;20689;-57
2022/07/05 02:16:45;;;;;;;7.30;3.60;;;;;;;23.11;54.63;99536.97;5063225;28;20598;-57
2022/07/05 02:19:12;;;;;;;7.33;6.03;;;;;;;23.15;54.49;99543.84;5068542;28;20191;-57
2022/07/05 02:21:39;;;;;;;7.22;4.68;;;;;;;23.09;54.40;99534.41;5071590;28;20805;-57
2022/07/05 02:24:06;;;;;;;9.00;4.17;;;;;;;23.08;53.58;99534.44;5072172;28;20226;-57
2022/07/05 02:26:33;;;;;;;10.07;4.83;;;;;;;22.96;53.08;99533.13;5072771;28;20195;-57
2022/07/05 02:29:01;;;;;;;7.47;4.60;;;;;;;22.90;53.27;99526.31;5072492;28;20242;-57
2022/07/05 02:31:28;;;;;;;6.77;4.57;;;;;;;22.86;53.05;99522.06;5072233;28;20588;-57
2022/07/05 02:33:56;;;;;;;7.20;4.67;;;;;;;22.79;53.06;99532.81;5061915;28;20220;-57
2022/07/05 02:36:23;;;;;;;4.90;4.00;;;;;;;22.81;53.04;99537.09;5066333;28;20460;-57
2022/07/05 02:38:50;;;;;;;5.00;4.50;;;;;;;22.81;53.16;99550.19;5072211;28;20197;-57
2022/07/05 02:41:17;;;;;;;8.23;4.37;;;;;;;22.62;53.57;99541.19;5072152;28;20574;-57
2022/07/05 02:43:44;;;;;;;7.17;4.60;;;;;;;22.61;53.99;99541.22;5071969;28;20191;-57
2022/07/05 02:46:11;;;;;;;10.23;4.50;;;;;;;22.61;54.26;99547.31;5072173;28;20203;-57
2022/07/05 02:48:39;;;;;;;9.63;5.10;;;;;;;22.52;54.16;99545.00;5072007;28;20219;-57
2022/07/05 02:51:07;;;;;;;8.97;5.07;;;;;;;22.44;54.43;99554.00;5072223;28;20202;-57
2022/07/05 02:53:35;;;;;;;7.07;5.17;;;;;;;22.43;54.44;99555.75;5072279;28;20210;-57
2022/07/05 02:56:02;;;;;;;7.47;5.45;;;;;;;22.47;54.96;99548.66;5071626;28;20557;-57
2022/07/05 02:58:29;;;;;;;7.73;4.87;;;;;;;22.44;54.91;99554.00;5072009;28;20261;-57
2022/07/05 03:00:55;;;;;;;5.30;4.80;;;;;;;22.43;54.94;99547.91;5071716;28;20199;-57
2022/07/05 03:03:22;;;;;;;6.00;4.97;;;;;;;22.43;54.64;99553.13;5071653;28;20195;-57
2022/07/05 03:05:49;;;;;;;8.37;4.83;;;;;;;22.41;54.95;99560.19;5071895;28;20196;-57
2022/07/05 03:08:17;;;;;;;6.60;5.80;;;;;;;22.50;54.46;99553.78;5059505;28;20216;-57
2022/07/05 03:10:44;;;;;;;6.20;4.75;;;;;;;22.60;54.41;99556.09;5069589;28;20441;-57
2022/07/05 03:13:11;;;;;;;6.50;4.70;;;;;;;22.82;53.95;99558.91;5071780;28;20219;-57
2022/07/05 03:15:38;;;;;;;5.37;4.87;;;;;;;22.94;53.66;99555.03;5071358;28;20559;-56
2022/07/05 03:18:05;;;;;;;6.07;5.40;;;;;;;22.63;53.62;99493.16;5071447;28;20196;-56
2022/07/05 03:20:32;;;;;;;6.30;5.00;;;;;;;22.94;53.22;99557.66;5071551;28;20195;-57
2022/07/05 03:22:59;;;;;;;7.80;5.43;;;;;;;22.97;53.31;99563.63;5071150;28;20234;-57
2022/07/05 03:25:27;;;;;;;5.87;5.27;;;;;;;22.97;52.91;99562.78;5071357;28;20202;-57
2022/07/05 03:27:54;;;;;;;7.93;5.80;;;;;;;22.96;53.03;99554.09;5071319;28;20249;-57
2022/07/05 03:30:21;;;;;;;6.07;5.47;;;;;;;22.97;53.33;99550.53;5071228;28;20199;-57
2022/07/05 03:32:48;;;;;;;9.00;5.70;;;;;;;23.04;53.21;99548.56;5070318;28;20749;-57
2022/07/05 03:35:15;;;;;;;8.70;5.57;;;;;;;23.09;53.57;99544.03;5070355;28;20203;-57
2022/07/05 03:37:41;;;;;;;5.90;5.23;;;;;;;23.06;54.28;99542.38;5071157;28;20187;-57
2022/07/05 03:40:09;;;;;;;7.00;5.60;;;;;;;23.05;54.41;99538.03;5070911;28;20650;-57
2022/07/05 03:42:37;;;;;;;7.90;5.20;;;;;;;23.08;54.99;99542.31;5070620;28;20569;-57
2022/07/05 03:45:05;;;;;;;7.53;5.65;;;;;;;23.02;55.05;99537.31;5070608;28;20955;-57
2022/07/05 03:47:32;;;;;;;5.83;5.23;;;;;;;22.93;55.82;99541.06;5070547;28;20621;-57
2022/07/05 03:49:59;;;;;;;10.47;5.37;;;;;;;22.91;56.22;99537.63;5070756;28;20216;-57
2022/07/05 03:52:25;;;;;;;10.53;5.60;;;;;;;22.95;55.93;99536.63;5070433;28;20201;-57
2022/07/05 03:54:52;;;;;;;6.30;5.70;;;;;;;22.98;56.35;99535.69;5070594;28;20678;-57
2022/07/05 03:57:19;;;;;;;11.03;5.77;;;;;;;23.05;56.69;99543.28;5070617;28;20206;-57
2022/07/05 03:59:48;;;;;;;8.27;5.80;;;;;;;23.08;56.40;99542.31;5066903;28;20225;-57
2022/07/05 04:02:15;;;;;;;10.37;5.43;;;;;;;23.11;56.57;99542.22;5070684;28;20195;-57
2022/07/05 04:04:42;;;;;;;6.03;5.43;;;;;;;23.03;56.30;99542.47;5070345;28;20192;-57
2022/07/05 04:07:09;;;;;;;7.27;5.53;;;;;;;22.97;56.42;99540.06;5067270;28;20192;-65
2022/07/05 04:09:36;;;;;;;7.27;6.30;;;;;;;22.95;56.81;99543.63;5059677;28;20702;-66
2022/07/05 04:12:03;;;;;;;9.00;5.53;;;;;;;22.85;56.95;99537.84;5070210;28;20199;-66
2022/07/05 04:14:30;;;;;;;6.93;5.30;;;;;;;22.84;57.14;99529.13;5070107;28;20199;-66
2022/07/05 04:16:58;;;;;;;6.60;5.07;;;;;;;22.86;57.30;99522.06;5068531;28;20214;-66
2022/07/05 04:19:25;;;;;;;8.37;5.23;;;;;;;22.91;56.84;99517.53;5070340;28;20188;-66
2022/07/05 04:21:52;;;;;;;6.88;5.35;;;;;;;22.94;56.57;99519.19;5068290;28;20454;-65
2022/07/05 04:24:18;;;;;;;8.63;5.10;;;;;;;23.07;55.77;99527.50;5070218;28;20196;-66
2022/07/05 04:26:45;;;;;;;9.40;5.93;;;;;;;23.05;56.08;99534.53;5068637;28;20210;-66
2022/07/05 04:29:12;;;;;;;5.80;5.30;;;;;;;23.03;56.41;99524.13;5070327;28;20242;-66
2022/07/05 04:31:39;;;;;;;10.00;5.13;;;;;;;23.15;55.51;99522.88;5069901;28;20195;-66
2022/07/05 04:34:07;;;;;;;10.23;5.23;;;;;;;23.21;54.58;99512.16;5069881;28;20196;-66
2022/07/05 04:36:34;;;;;;;6.90;4.83;;;;;;;23.27;54.92;99512.78;5070206;28;20970;-66
2022/07/05 04:39:01;;;;;;;6.77;5.23;;;;;;;23.29;55.27;99505.72;5070240;28;20199;-66
2022/07/05 04:41:28;;;;;;;8.03;5.40;;;;;;;23.34;55.31;99511.69;5070345;28;20318;-66
2022/07/05 04:43:55;;;;;;;8.20;5.57;;;;;;;23.44;55.06;99514.84;5067195;28;20446;-66
2022/07/05 04:46:21;;;;;;;5.83;5.30;;;;;;;23.53;54.02;99516.31;5070350;28;20199;-66
2022/07/05 04:48:48;;;;;;;5.40;4.97;;;;;;;23.43;53.74;99513.16;5069807;28;20223;-66
2022/07/05 04:51:17;;;;;;;7.30;5.63;;;;;;;23.48;53.94;99519.97;5069889;28;20651;-68
2022/07/05 04:53:44;;;;;;;6.77;5.10;;;;;;;23.54;54.05;99520.66;5070030;28;20199;-66
2022/07/05 04:56:10;;;;;;;7.93;6.33;;;;;;;23.57;54.08;99521.38;5069573;28;20433;-66
2022/07/05 04:58:37;;;;;;;6.27;5.27;;;;;;;23.67;53.44;99527.16;5068921;28;20437;-66
2022/07/05 05:01:04;;;;;;;6.70;5.10;;;;;;;23.79;53.43;99524.94;5069958;28;20203;-66
2022/07/05 05:03:31;;;;;;;7.07;5.13;;;;;;;23.79;52.60;99519.69;5070070;28;20191;-66
2022/07/05 05:05:58;;;;;;;7.67;4.90;;;;;;;23.87;51.39;99517.63;5070291;28;20191;-66
2022/07/05 05:08:26;;;;;;;5.97;4.13;;;;;;;23.88;50.61;99532.47;5069724;28;20241;-66
2022/07/05 05:10:53;;;;;;;5.03;4.40;;;;;;;23.80;50.63;99529.28;5069527;28;20191;-66
2022/07/05 05:13:20;;;;;;;8.80;5.27;;;;;;;23.93;50.74;99533.16;5069859;28;20223;-66
2022/07/05 05:15:47;;;;;;;6.83;4.97;;;;;;;24.02;50.75;99535.44;5069829;28;20237;-66
2022/07/05 05:18:15;;;;;;;7.60;5.35;;;;;;;24.10;50.72;99544.81;5069325;28;20499;-65
2022/07/05 05:20:42;;;;;;;8.70;5.13;;;;;;;24.24;50.57;99545.16;5069478;28;20231;-65
2022/07/05 05:23:08;;;;;;;5.90;4.60;;;;;;;24.28;49.82;99546.75;5069590;28;20223;-66
2022/07/05 05:25:37;;;;;;;8.57;5.10;;;;;;;24.23;50.81;99552.16;5069557;28;20563;-66
2022/07/05 05:28:04;;;;;;;5.80;5.20;;;;;;;24.32;51.15;99548.34;5069321;28;20660;-66
2022/07/05 05:30:31;;;;;;;7.23;4.80;;;;;;;24.34;51.04;99555.22;5069532;28;20227;-66
2022/07/05 05:32:58;;;;;;;8.95;5.30;;;;;;;24.37;50.82;99552.50;5068764;28;20439;-66
2022/07/05 05:35:24;;;;;;;6.67;5.43;;;;;;;24.54;50.87;99549.22;5069474;28;20191;-66
2022/07/05 05:37:53;;;;;;;5.43;4.93;;;;;;;24.64;50.85;99553.16;5069024;28;20191;-66
2022/07/05 05:40:21;;;;;;;8.70;5.30;;;;;;;24.71;50.28;99552.03;5056407;28;20206;-66
2022/07/05 05:42:51;;;;;;;8.73;5.50;;;;;;;24.70;50.07;99552.06;5057537;28;20270;-66
2022/07/05 05:45:19;;;;;;;8.60;5.27;;;;;;;24.62;50.44;99547.13;5069347;28;20227;-67
2022/07/05 05:47:51;;;;;;;8.30;5.27;;;;;;;24.67;50.75;99558.31;5069140;28;20191;-66
2022/07/05 05:50:21;;;;;;;5.43;4.83;;;;;;;24.72;50.27;99559.00;5069374;28;20219;-66
2022/07/05 05:52:48;;;;;;;8.13;4.73;;;;;;;24.79;49.89;99557.84;5069407;28;20685;-66
2022/07/05 05:55:15;;;;;;;8.43;5.33;;;;;;;24.87;50.01;99554.91;5069628;28;20192;-66
2022/07/05 05:57:42;;;;;;;9.70;6.00;;;;;;;24.91;50.26;99557.38;5067332;28;20734;-67
2022/07/05 06:00:14;;;;;;;10.83;5.93;;;;;;;25.01;50.62;99553.44;5049159;28;20189;-66
2022/07/05 06:02:42;;;;;;;7.73;5.40;;;;;;;25.06;49.93;99551.47;5049219;28;20196;-67
2022/07/05 06:05:09;;;;;;;10.17;5.37;;;;;;;25.05;49.97;99562.88;5059419;28;20209;-58
2022/07/05 06:07:50;;;;;;;7.63;4.70;;;;;;;25.13;49.61;99544.19;5068899;28;20191;-58
2022/07/05 06:10:19;;;;;;;9.43;5.17;;;;;;;25.30;49.43;99546.94;5069767;28;20219;-58
2022/07/05 06:12:46;;;;;;;8.23;4.80;;;;;;;25.37;47.96;99545.78;5072510;28;20196;-58
2022/07/05 06:15:14;;;;;;;5.07;4.63;;;;;;;25.40;47.05;99547.41;5072541;28;20192;-58
2022/07/05 06:17:41;;;;;;;6.17;4.27;;;;;;;25.34;48.32;99538.00;5072697;28;20709;-57
2022/07/05 06:20:11;;;;;;;8.80;5.55;;;;;;;25.37;48.82;99537.88;5071703;28;20199;-58
2022/07/05 06:22:38;;;;;;;9.83;5.70;;;;;;;25.43;48.82;99524.47;5070676;28;20286;-57
2022/07/05 06:25:06;;;;;;;6.38;5.03;;;;;;;25.55;47.94;99525.72;5072031;28;20437;-58
2022/07/05 06:27:33;;;;;;;6.47;4.85;;;;;;;25.69;46.85;99528.59;5072589;28;20196;-57
2022/07/05 06:29:59;;;;;;;6.70;4.60;;;;;;;25.82;47.14;99523.66;5072163;28;20602;-57
2022/07/05 06:32:28;;;;;;;6.23;4.80;;;;;;;25.96;47.26;99527.34;5072352;28;20191;-57
2022/07/05 06:34:55;;;;;;;10.00;6.10;;;;;;;26.03;46.93;99518.25;5071430;28;20198;-58
2022/07/05 06:37:21;;;;;;;5.88;4.53;;;;;;;26.12;47.15;99524.88;5072096;28;20191;-57
2022/07/05 06:39:48;;;;;;;9.00;5.30;;;;;;;26.20;46.35;99526.25;5064126;28;20453;-57
2022/07/05 06:42:15;;;;;;;9.10;4.73;;;;;;;26.23;45.90;99526.09;5063066;28;20705;-57
2022/07/05 06:44:43;;;;;;;9.67;5.43;;;;;;;26.17;45.99;99500.06;5068162;28;20196;-58
2022/07/05 06:47:10;;;;;;;9.40;5.00;;;;;;;26.34;45.19;99513.25;5063802;28;20589;-57
2022/07/05 06:49:38;;;;;;;6.63;5.00;;;;;;;26.39;45.31;99510.44;5056001;28;20208;-57
2022/07/05 06:52:06;;;;;;;6.53;4.67;;;;;;;26.44;45.14;99518.09;5060819;28;20192;-57
2022/07/05 06:54:33;;;;;;;7.38;4.38;;;;;;;26.57;44.40;99506.03;5072118;28;20206;-57
2022/07/05 06:56:59;;;;;;;7.63;5.30;;;;;;;26.68;44.93;99501.09;5072042;28;20574;-57
2022/07/05 06:59:26;;;;;;;7.78;5.00;;;;;;;26.72;44.68;99507.94;5072133;28;20514;-57
2022/07/05 07:01:53;;;;;;;5.20;4.32;;;;;;;26.78;44.34;99503.22;5070905;28;20192;-57
2022/07/05 07:04:20;;;;;;;9.03;4.73;;;;;;;26.86;44.17;99503.69;5065751;28;20684;-57
2022/07/05 07:06:48;;;;;;;5.87;5.10;;;;;;;26.96;44.52;99493.56;5063703;28;20196;-56
2022/07/05 07:09:21;;;;;;;7.60;4.72;;;;;;;27.08;43.28;99494.72;5066558;28;20192;-57
2022/07/05 07:11:49;;;;;;;12.07;5.43;;;;;;;27.13;43.44;99488.28;5061965;28;20203;-57
2022/07/05 07:14:16;;;;;;;8.87;4.90;;;;;;;27.04;41.75;99480.84;5063046;28;20202;-57
2022/07/05 07:16:44;;;;;;;5.22;4.53;;;;;;;26.89;39.42;99484.25;5069520;28;20204;-56
2022/07/05 07:19:11;;;;;;;6.70;5.15;;;;;;;26.76;39.95;99491.03;5070453;28;20585;-64
2022/07/05 07:21:38;;;;;;;5.20;4.67;;;;;;;26.69;39.48;99487.84;5069937;28;20205;-57
2022/07/05 07:24:08;;;;;;;7.80;4.83;;;;;;;26.80;38.31;99489.97;5070586;28;20288;-57
2022/07/05 07:27:02;;;;;;;7.38;5.22;;;;;;;26.71;41.10;99483.34;5070956;28;20653;-57
2022/07/05 07:29:25;;;;;;;8.73;5.77;;;;;;;26.73;40.21;99483.25;5070541;28;20601;-57
2022/07/05 07:31:52;;;;;;;6.07;4.45;;;;;;;26.82;38.23;99482.84;5070739;28;20659;-57
2022/07/05 07:34:19;;;;;;;6.25;4.57;;;;;;;26.97;35.85;99486.50;5069976;28;20449;-57
2022/07/05 07:36:46;;;;;;;7.70;4.90;;;;;;;27.11;36.54;99484.88;5069812;28;20667;-57
2022/07/05 07:39:14;;;;;;;6.25;4.88;;;;;;;27.21;39.02;99483.47;5069585;28;20187;-57
2022/07/05 07:41:41;;;;;;;8.73;5.40;;;;;;;27.32;39.33;99481.13;5068680;28;20486;-57
2022/07/05 07:44:08;;;;;;;5.72;5.15;;;;;;;27.43;38.91;99486.72;5067855;28;20192;-57
2022/07/05 07:46:35;;;;;;;9.73;5.40;;;;;;;27.61;38.10;99489.34;5068508;28;20203;-57
2022/07/05 07:49:02;;;;;;;10.88;5.32;;;;;;;27.75;38.65;99492.91;5069616;28;20294;-57
2022/07/05 07:51:30;;;;;;;7.32;5.80;;;;;;;27.88;38.04;99499.25;5069303;28;20207;-57
2022/07/05 07:53:56;;;;;;;9.00;5.78;;;;;;;27.78;38.09;99486.63;5069528;28;20196;-58
2022/07/05 07:56:25;;;;;;;5.78;5.35;;;;;;;27.71;37.28;99495.81;5069937;28;20598;-66
2022/07/05 07:58:51;;;;;;;7.18;5.85;;;;;;;27.79;37.74;99499.75;5070203;28;20204;-66
2022/07/05 08:01:18;;;;;;;6.53;5.90;;;;;;;27.88;37.43;99496.59;5069917;28;20637;-57
2022/07/05 08:03:45;;;;;;;9.15;6.22;;;;;;;28.01;37.21;99497.66;5070376;28;20998;-57
2022/07/05 08:06:13;;;;;;;10.70;6.05;;;;;;;28.16;36.60;99503.03;5070094;28;20195;-57
2022/07/05 08:08:42;;;;;;;8.93;5.78;;;;;;;28.27;36.37;99496.22;5070174;28;20619;-57
2022/07/05 08:11:10;;;;;;;6.07;5.45;;;;;;;28.42;36.32;99505.09;5069498;28;20460;-57
2022/07/05 08:13:40;;;;;;;5.47;4.97;;;;;;;28.57;36.04;99497.13;5070135;28;20195;-57
2022/07/05 08:16:08;;;;;;;8.32;5.53;;;;;;;28.74;35.17;99508.56;5070147;28;20290;-57
2022/07/05 08:21:32;;;;;;;6.13;4.95;;;;;;;28.83;35.17;99505.41;5069828;28;20199;-66
2022/07/05 08:23:59;;;;;;;5.57;4.65;;;;;;;28.88;34.97;99503.34;5069218;28;20258;-66
2022/07/05 08:26:26;;;;;;;8.13;5.00;;;;;;;28.71;36.13;99492.88;5068724;28;20860;-66
2022/07/05 08:28:55;;;;;;;6.40;5.07;;;;;;;28.80;35.44;99502.94;5069497;28;20187;-66
2022/07/05 08:31:22;;;;;;;9.48;5.25;;;;;;;28.61;34.73;99498.69;5069808;28;20224;-57
2022/07/05 08:33:48;;;;;;;10.15;5.78;;;;;;;28.83;35.66;99495.69;5069493;28;20195;-57
2022/07/05 08:36:15;;;;;;;9.18;5.70;;;;;;;28.96;35.50;99501.09;5069285;28;20192;-57
2022/07/05 08:38:42;;;;;;;6.57;5.30;;;;;;;29.05;34.53;99487.31;5069515;28;20686;-57
2022/07/05 08:41:11;;;;;;;6.68;5.43;;;;;;;29.16;34.93;99483.09;5069451;28;20187;-57
2022/07/05 08:43:42;;;;;;;7.80;5.18;;;;;;;29.32;34.85;99483.06;5069396;28;20302;-57
2022/07/05 08:46:11;;;;;;;5.85;5.10;;;;;;;29.54;33.07;99478.16;5068895;28;20191;-57
2022/07/05 08:48:41;;;;;;;18.27;7.13;;;;;;;29.77;33.89;99488.19;5068471;28;20434;-57
2022/07/05 08:51:12;;;;;;;15.93;6.75;;;;;;;30.00;32.08;99476.16;5069453;28;20215;-57
2022/07/05 08:53:40;;;;;;;15.13;7.28;;;;;;;30.09;31.69;99474.72;5069453;28;20196;-57
2022/07/05 08:56:08;;;;;;;9.80;4.93;;;;;;;30.17;30.93;99475.94;5069357;28;20194;-56
2022/07/05 08:58:35;;;;;;;4.75;4.22;;;;;;;30.03;30.39;99470.66;5069671;28;20202;-57
2022/07/05 09:01:03;;;;;;;10.50;5.95;;;;;;;30.05;30.11;99466.13;5069386;28;20694;-57
2022/07/05 09:03:34;;;;;;;11.23;4.67;;;;;;;30.09;30.58;99458.81;5068273;28;20433;-57
2022/07/05 09:06:02;;;;;;;8.55;4.65;;;;;;;30.33;30.73;99465.19;5069508;28;20204;-57
2022/07/05 09:08:33;;;;;;;9.10;4.78;;;;;;;30.31;31.06;99456.50;5069294;28;20202;-56
2022/07/05 09:11:02;;;;;;;7.25;5.10;;;;;;;30.30;31.71;99458.28;5069208;28;20229;-57
2022/07/05 09:13:29;;;;;;;7.68;5.20;;;;;;;30.40;31.66;99450.63;5069072;28;20195;-57
2022/07/05 09:15:56;;;;;;;5.10;4.60;;;;;;;30.46;31.72;99452.88;5068917;28;20192;-57
2022/07/05 09:18:44;;;;;;;7.80;5.63;;;;;;;30.40;32.12;99418.81;5069058;28;20187;-65
2022/07/05 09:21:16;;;;;;;5.75;4.63;;;;;;;30.54;31.28;99445.28;5069141;28;20207;-66
2022/07/05 09:23:43;;;;;;;9.13;4.85;;;;;;;30.67;31.37;99443.50;5068944;28;20618;-66
2022/07/05 09:26:10;;;;;;;12.00;4.78;;;;;;;30.77;31.62;99447.22;5069118;28;20578;-66
2022/07/05 09:28:37;;;;;;;5.38;4.93;;;;;;;30.88;31.45;99436.75;5069224;28;20195;-66
2022/07/05 09:31:04;;;;;;;5.20;4.65;;;;;;;30.96;30.41;99442.41;5068970;28;20207;-66
2022/07/05 09:33:32;;;;;;;5.28;4.30;;;;;;;30.98;30.48;99438.81;5069294;28;20192;-58
2022/07/05 09:36:01;;;;;;;7.03;5.22;;;;;;;30.61;30.71;99380.25;5069195;28;20739;-58
2022/07/05 09:38:28;;;;;;;13.43;5.97;;;;;;;30.92;30.69;99434.78;5068694;28;20437;-58
2022/07/05 09:40:57;;;;;;;7.70;4.97;;;;;;;31.10;31.25;99436.16;5069212;28;20195;-58
2022/07/05 09:43:25;;;;;;;11.70;6.32;;;;;;;31.26;30.74;99422.69;5069050;28;20195;-58
2022/07/05 09:45:57;;;;;;;6.40;4.80;;;;;;;31.32;31.14;99423.09;5071360;28;20207;-58
2022/07/05 09:48:24;;;;;;;11.15;5.05;;;;;;;31.28;29.72;99426.06;5073505;28;20214;-58
2022/07/05 09:50:51;;;;;;;8.40;5.55;;;;;;;30.83;29.63;99430.03;5073106;28;20215;-57
2022/07/05 09:53:20;;;;;;;5.68;4.65;;;;;;;30.73;29.19;99419.22;5073164;28;20187;-58
2022/07/05 09:56:01;;;;;;;6.32;4.68;;;;;;;30.84;29.64;99427.31;5072899;28;20254;-58
2022/07/05 09:58:29;;;;;;;10.73;4.63;;;;;;;30.92;29.01;99422.34;5072967;28;20274;-58
2022/07/05 10:00:56;;;;;;;4.95;4.15;;;;;;;31.14;29.87;99408.44;5064243;28;20437;-58
2022/07/05 10:03:23;;;;;;;5.35;4.43;;;;;;;31.41;29.79;99403.88;5068140;28;20191;-58
2022/07/05 10:05:50;;;;;;;4.65;4.25;;;;;;;31.60;29.19;99408.75;5071888;28;20194;-58
2022/07/05 10:08:20;;;;;;;14.75;5.85;;;;;;;31.72;28.69;99407.88;5067235;28;20965;-58
2022/07/05 10:10:51;;;;;;;4.38;4.07;;;;;;;31.82;28.34;99402.75;5071428;28;20211;-59
2022/07/05 10:13:18;;;;;;;7.50;4.20;;;;;;;31.89;28.89;99404.84;5067188;28;20206;-58
2022/07/05 10:15:46;;;;;;;5.88;4.00;;;;;;;31.94;27.89;99409.84;5069560;28;20241;-57
2022/07/05 10:18:15;;;;;;;5.10;4.32;;;;;;;31.82;28.98;99398.28;5070415;28;20446;-57
2022/07/05 10:20:43;;;;;;;4.90;4.25;;;;;;;31.89;28.19;99396.03;5072044;28;20206;-57
2022/07/05 10:23:12;;;;;;;5.78;4.10;;;;;;;32.10;29.24;99395.34;5071990;28;20781;-58
2022/07/05 10:25:40;;;;;;;4.57;4.18;;;;;;;32.10;28.81;99395.34;5072185;28;20201;-57
2022/07/05 10:28:09;;;;;;;6.40;4.40;;;;;;;32.22;29.09;99390.09;5072145;28;20183;-57
2022/07/05 10:30:37;;;;;;;9.85;4.95;;;;;;;32.39;29.50;99400.28;5072804;28;20223;-57
2022/07/05 10:33:06;;;;;;;7.15;4.45;;;;;;;32.61;30.40;99392.44;5071928;28;20199;-56
2022/07/05 10:35:34;;;;;;;5.50;5.00;;;;;;;32.77;30.33;99392.13;5071650;28;20192;-56
2022/07/05 10:38:02;;;;;;;5.38;4.15;;;;;;;32.78;29.38;99384.00;5070202;28;20642;-57
2022/07/05 10:40:32;;;;;;;5.70;4.75;;;;;;;32.75;30.24;99383.41;5071599;28;20199;-57
2022/07/05 10:43:02;;;;;;;6.22;4.40;;;;;;;32.67;29.52;99379.53;5069341;28;20199;-57
2022/07/05 10:45:31;;;;;;;7.10;4.43;;;;;;;32.56;29.63;99383.94;5062817;28;20893;-57
2022/07/05 10:48:18;;;;;;;7.10;4.93;;;;;;;32.64;29.36;99374.44;5061782;28;20617;-57
2022/07/05 10:50:47;;;;;;;9.20;5.28;;;;;;;32.90;29.98;99377.75;5051716;28;20447;-56
2022/07/05 10:53:15;;;;;;;13.05;5.30;;;;;;;33.16;29.71;99363.28;5069294;28;20199;-57
2022/07/05 10:55:57;;;;;;;4.65;4.25;;;;;;;33.02;29.73;99362.66;5071409;28;20199;-57
2022/07/05 10:58:42;;;;;;;9.40;4.45;;;;;;;32.92;29.47;99359.00;5070338;28;20191;-57
2022/07/05 11:01:40;;;;;;;4.78;4.35;;;;;;;32.92;29.60;99359.00;5071224;28;20191;-56
2022/07/05 11:04:26;;;;;;;8.40;5.53;;;;;;;33.16;29.94;99357.94;5071388;28;20196;-57
2022/07/05 11:06:53;;;;;;;7.03;4.60;;;;;;;33.28;28.88;99358.81;5058729;28;20527;-57
2022/07/05 11:09:21;;;;;;;9.35;5.07;;;;;;;33.36;29.27;99355.53;5062347;28;20223;-58
2022/07/05 11:12:02;;;;;;;6.78;4.88;;;;;;;33.52;28.94;99351.53;5060641;28;20295;-57
2022/07/05 11:14:37;;;;;;;5.90;4.38;;;;;;;33.67;29.63;99344.16;5059874;28;20204;-57
2022/07/05 11:17:22;;;;;;;6.57;4.80;;;;;;;33.75;29.20;99344.38;5069856;28;20685;-57
2022/07/05 11:20:12;;;;;;;5.00;4.60;;;;;;;33.84;29.47;99339.13;5058738;28;20188;-57
2022/07/05 11:22:42;;;;;;;10.00;6.00;;;;;;;33.70;29.45;99342.09;5050875;28;20223;-57
2022/07/05 11:25:11;;;;;;;5.07;4.53;;;;;;;33.71;29.97;99334.91;5055940;28;20192;-57
2022/07/05 11:28:06;;;;;;;7.20;5.70;;;;;;;33.63;29.14;99330.22;5070113;28;20195;-57
2022/07/05 11:30:56;;;;;;;5.55;5.05;;;;;;;33.76;29.45;99325.56;5061849;28;20206;-57
2022/07/05 11:33:44;;;;;;;5.80;5.00;;;;;;;33.95;29.11;99324.09;5064720;28;20269;-57
2022/07/05 11:36:24;;;;;;;7.60;5.25;;;;;;;33.93;29.37;99324.19;5054484;28;20279;-57
2022/07/05 11:39:13;;;;;;;6.75;5.70;;;;;;;34.09;28.86;99315.81;5051976;28;20192;-57
2022/07/05 11:41:40;;;;;;;6.85;5.10;;;;;;;34.03;28.88;99309.16;5053829;28;20676;-65